createdAt,value
2022-12-06T00:01:35.728Z,2.90
2022-12-06T00:04:05.599Z,2.90
2022-12-06T00:06:36.683Z,2.90
2022-12-06T00:09:03.949Z,2.90
2022-12-06T00:11:35.694Z,2.80
2022-12-06T00:14:07.116Z,2.80
2022-12-06T00:16:35.146Z,2.80
2022-12-06T00:19:02.264Z,2.80
2022-12-06T00:21:31.613Z,2.90
2022-12-06T00:24:06.421Z,2.90
2022-12-06T00:26:36.583Z,2.90
2022-12-06T00:29:04.290Z,3.00
2022-12-06T00:31:32.313Z,3.00
2022-12-06T00:33:59.033Z,2.90
2022-12-06T00:36:29.067Z,2.90
2022-12-06T00:38:56.033Z,2.90
2022-12-06T00:41:24.282Z,2.90
2022-12-06T00:43:52.263Z,2.90
2022-12-06T00:46:21.617Z,3.00
2022-12-06T00:48:48.886Z,3.00
2022-12-06T00:51:17.220Z,3.00
2022-12-06T00:53:44.965Z,3.10
2022-12-06T00:56:12.002Z,3.00
2022-12-06T00:58:39.093Z,3.00
2022-12-06T01:01:14.892Z,3.00
2022-12-06T01:03:42.891Z,3.00
2022-12-06T01:06:12.593Z,3.00
2022-12-06T01:08:40.247Z,3.10
2022-12-06T01:11:08.001Z,3.10
2022-12-06T01:13:34.781Z,3.20
2022-12-06T01:16:15.946Z,3.20
2022-12-06T01:18:45.233Z,3.20
2022-12-06T01:21:17.886Z,3.20
2022-12-06T01:23:45.947Z,3.20
2022-12-06T01:26:20.492Z,3.20
2022-12-06T01:28:47.655Z,3.30
2022-12-06T01:31:15.854Z,3.20
2022-12-06T01:33:42.930Z,3.30
2022-12-06T01:36:15.633Z,3.30
2022-12-06T01:38:42.230Z,3.30
2022-12-06T01:41:08.876Z,3.40
2022-12-06T01:43:41.031Z,3.40
2022-12-06T01:46:26.444Z,3.40
2022-12-06T01:49:13.339Z,3.40
2022-12-06T01:52:01.940Z,3.30
2022-12-06T01:54:29.659Z,3.30
2022-12-06T01:56:58.740Z,3.30
2022-12-06T01:59:26.364Z,3.30
2022-12-06T02:01:53.717Z,3.30
2022-12-06T02:04:21.112Z,3.30
2022-12-06T02:06:47.943Z,3.30
2022-12-06T02:09:16.684Z,3.30
2022-12-06T02:11:47.411Z,3.30
2022-12-06T02:14:17.933Z,3.40
2022-12-06T02:17:03.504Z,3.40
2022-12-06T02:19:59.601Z,3.40
2022-12-06T02:22:50.502Z,3.40
2022-12-06T02:25:43.748Z,3.30
2022-12-06T02:28:42.596Z,3.30
2022-12-06T02:31:23.107Z,3.30
2022-12-06T02:33:55.574Z,3.40
2022-12-06T02:36:22.179Z,3.40
2022-12-06T02:38:48.761Z,3.50
2022-12-06T02:41:32.085Z,3.50
2022-12-06T02:44:04.395Z,3.40
2022-12-06T02:46:32.702Z,3.40
2022-12-06T02:49:02.486Z,3.50
2022-12-06T02:51:31.492Z,3.50
2022-12-06T02:54:00.917Z,3.50
2022-12-06T02:56:28.398Z,3.50
2022-12-06T02:58:56.126Z,3.40
2022-12-06T03:01:29.669Z,3.40
2022-12-06T03:03:56.344Z,3.50
2022-12-06T03:06:50.823Z,3.50
2022-12-06T03:09:29.701Z,3.40
2022-12-06T03:12:15.134Z,3.40
2022-12-06T03:15:03.698Z,3.40
2022-12-06T03:17:47.666Z,3.40
2022-12-06T03:20:27.423Z,3.30
2022-12-06T03:23:02.286Z,3.40
2022-12-06T03:25:30.110Z,3.40
2022-12-06T03:27:58.750Z,3.40
2022-12-06T03:30:25.470Z,3.40
2022-12-06T03:32:52.395Z,3.50
2022-12-06T03:35:29.021Z,3.50
2022-12-06T03:38:23.255Z,3.50
2022-12-06T03:40:53.396Z,3.40
2022-12-06T03:43:20.195Z,3.30
2022-12-06T03:45:59.446Z,3.30
2022-12-06T03:48:38.089Z,3.30
2022-12-06T03:51:08.880Z,3.40
2022-12-06T03:53:35.638Z,3.40
2022-12-06T03:56:02.320Z,3.30
2022-12-06T03:58:29.028Z,3.40
2022-12-06T04:00:55.733Z,3.40
2022-12-06T04:03:22.527Z,3.50
2022-12-06T04:05:49.244Z,3.60
2022-12-06T04:08:15.993Z,3.50
2022-12-06T04:10:42.697Z,3.50
2022-12-06T04:13:09.473Z,3.60
2022-12-06T04:15:38.627Z,3.60
2022-12-06T04:18:18.483Z,3.60
2022-12-06T04:21:23.239Z,3.60
2022-12-06T04:23:51.959Z,3.60
2022-12-06T04:26:21.605Z,3.60
2022-12-06T04:29:08.008Z,3.50
2022-12-06T04:31:54.048Z,3.50
2022-12-06T04:34:39.791Z,3.50
2022-12-06T04:37:25.471Z,3.50
2022-12-06T04:39:52.233Z,3.50
2022-12-06T04:42:38.042Z,3.60
2022-12-06T04:45:06.035Z,3.60
2022-12-06T04:47:32.870Z,3.50
2022-12-06T04:49:59.800Z,3.60
2022-12-06T04:52:30.137Z,3.50
2022-12-06T04:54:59.411Z,3.60
2022-12-06T04:57:26.035Z,3.60
2022-12-06T04:59:52.723Z,3.60
2022-12-06T05:02:19.325Z,3.60
2022-12-06T05:04:45.948Z,3.60
2022-12-06T05:07:12.692Z,3.60
2022-12-06T05:09:39.478Z,3.60
2022-12-06T05:12:06.418Z,3.60
2022-12-06T05:14:33.127Z,3.60
2022-12-06T05:16:59.795Z,3.60
2022-12-06T05:19:27.233Z,3.60
2022-12-06T05:21:53.879Z,3.60
2022-12-06T05:24:20.556Z,3.60
2022-12-06T05:26:47.144Z,3.60
2022-12-06T05:29:13.776Z,3.60
2022-12-06T05:31:40.427Z,3.60
2022-12-06T05:34:07.087Z,3.60
2022-12-06T05:36:33.764Z,3.60
2022-12-06T05:39:00.542Z,3.70
2022-12-06T05:41:27.265Z,3.70
2022-12-06T05:43:53.940Z,3.60
2022-12-06T05:46:20.749Z,3.60
2022-12-06T05:48:47.618Z,3.60
2022-12-06T05:51:14.577Z,3.50
2022-12-06T05:53:41.466Z,3.50
2022-12-06T05:56:11.055Z,3.60
2022-12-06T05:58:37.875Z,3.60
2022-12-06T06:01:06.600Z,3.60
2022-12-06T06:03:33.786Z,3.60
2022-12-06T06:06:01.547Z,3.60
2022-12-06T06:08:29.639Z,3.60
2022-12-06T06:10:57.319Z,3.70
2022-12-06T06:13:24.179Z,3.60
2022-12-06T06:15:50.918Z,3.60
2022-12-06T06:18:18.629Z,3.60
2022-12-06T06:20:52.980Z,3.40
2022-12-06T06:23:21.130Z,3.50
2022-12-06T06:25:48.462Z,3.60
2022-12-06T06:28:15.618Z,3.60
2022-12-06T06:30:42.749Z,3.60
2022-12-06T06:33:09.920Z,3.60
2022-12-06T06:35:37.973Z,3.60
2022-12-06T06:38:04.639Z,3.60
2022-12-06T06:40:31.387Z,3.50
2022-12-06T06:42:58.184Z,3.50
2022-12-06T06:45:28.577Z,3.50
2022-12-06T06:47:55.800Z,3.50
2022-12-06T06:50:22.467Z,3.50
2022-12-06T06:52:49.117Z,3.60
2022-12-06T06:55:15.933Z,3.50
2022-12-06T06:57:42.590Z,3.60
2022-12-06T07:00:09.825Z,3.60
2022-12-06T07:02:39.468Z,3.50
2022-12-06T07:05:06.850Z,3.50
2022-12-06T07:07:33.638Z,3.40
2022-12-06T07:10:00.955Z,3.40
2022-12-06T07:12:27.749Z,3.30
2022-12-06T07:14:54.480Z,3.40
2022-12-06T07:17:21.107Z,3.30
2022-12-06T07:19:47.875Z,3.30
2022-12-06T07:22:14.515Z,3.30
2022-12-06T07:24:42.960Z,3.40
2022-12-06T07:27:12.356Z,3.30
2022-12-06T07:29:38.996Z,3.30
2022-12-06T07:32:05.857Z,3.40
2022-12-06T07:34:33.299Z,3.40
2022-12-06T07:36:59.941Z,3.30
2022-12-06T07:39:26.688Z,3.30
2022-12-06T07:42:11.888Z,3.30
2022-12-06T07:45:01.652Z,3.30
2022-12-06T07:47:37.224Z,3.40
2022-12-06T07:50:06.866Z,3.30
2022-12-06T07:52:34.650Z,3.30
2022-12-06T07:55:01.649Z,3.30
2022-12-06T07:57:28.419Z,3.30
2022-12-06T07:59:55.746Z,3.40
2022-12-06T08:02:25.757Z,3.40
2022-12-06T08:04:53.280Z,3.40
2022-12-06T08:07:21.576Z,3.40
2022-12-06T08:09:48.553Z,3.40
2022-12-06T08:12:15.524Z,3.40
2022-12-06T08:14:42.173Z,3.40
2022-12-06T08:17:08.962Z,3.40
2022-12-06T08:19:35.613Z,3.40
2022-12-06T08:22:02.372Z,3.50
2022-12-06T08:24:29.033Z,3.40
2022-12-06T08:26:55.787Z,3.30
2022-12-06T08:29:22.898Z,3.20
2022-12-06T08:31:49.770Z,3.20
2022-12-06T08:34:16.994Z,3.10
2022-12-06T08:36:43.692Z,3.20
2022-12-06T08:39:12.490Z,3.10
2022-12-06T08:42:14.520Z,3.20
2022-12-06T08:44:41.138Z,3.10
2022-12-06T08:47:07.766Z,3.10
2022-12-06T08:49:34.471Z,3.00
2022-12-06T08:52:01.251Z,3.10
2022-12-06T08:54:28.679Z,3.20
2022-12-06T08:56:55.821Z,3.20
2022-12-06T08:59:23.137Z,3.30
2022-12-06T09:01:49.859Z,3.30
2022-12-06T09:04:16.778Z,3.40
2022-12-06T09:06:44.924Z,3.30
2022-12-06T09:09:13.429Z,3.20
2022-12-06T09:11:40.741Z,3.20
2022-12-06T09:14:09.221Z,3.00
2022-12-06T09:16:36.181Z,3.00
2022-12-06T09:19:03.278Z,3.10
2022-12-06T09:21:30.651Z,3.10
2022-12-06T09:23:58.318Z,3.00
2022-12-06T09:26:25.745Z,3.00
2022-12-06T09:28:54.855Z,3.00
2022-12-06T09:31:21.992Z,3.00
2022-12-06T09:33:48.814Z,2.90
2022-12-06T09:36:25.311Z,2.90
2022-12-06T09:38:57.049Z,3.00
2022-12-06T09:41:52.729Z,2.90
2022-12-06T09:45:01.072Z,2.80
2022-12-06T09:47:42.558Z,2.80
2022-12-06T09:50:36.526Z,2.80
2022-12-06T09:53:27.533Z,2.80
2022-12-06T09:56:24.561Z,2.70
2022-12-06T09:59:19.789Z,2.80
2022-12-06T10:01:58.408Z,3.00
2022-12-06T10:04:46.784Z,3.00
2022-12-06T10:07:16.454Z,2.90
2022-12-06T10:09:55.532Z,2.90
2022-12-06T10:12:42.310Z,2.80
2022-12-06T10:15:14.924Z,2.80
2022-12-06T10:17:52.595Z,2.70
2022-12-06T10:21:00.536Z,2.80
2022-12-06T10:23:50.049Z,2.80
2022-12-06T10:26:47.997Z,2.70
2022-12-06T10:29:40.406Z,2.70
2022-12-06T10:32:23.640Z,2.70
2022-12-06T10:35:18.241Z,2.90
2022-12-06T10:37:53.882Z,2.80
2022-12-06T10:40:41.840Z,2.70
2022-12-06T10:43:21.983Z,2.80
2022-12-06T10:46:43.416Z,2.90
2022-12-06T10:49:15.741Z,3.00
2022-12-06T10:51:59.085Z,2.90
2022-12-06T10:54:29.917Z,3.10
2022-12-06T10:57:02.152Z,3.20
2022-12-06T10:59:51.711Z,3.30
2022-12-06T11:02:31.237Z,3.40
2022-12-06T11:05:02.933Z,3.20
2022-12-06T11:07:43.283Z,3.20
2022-12-06T11:10:26.878Z,3.20
2022-12-06T11:13:28.792Z,3.20
2022-12-06T11:16:00.530Z,3.10
2022-12-06T11:18:29.399Z,3.00
2022-12-06T11:21:06.252Z,3.00
2022-12-06T11:24:00.826Z,3.00
2022-12-06T11:26:52.356Z,2.80
2022-12-06T11:29:19.302Z,2.60
2022-12-06T11:32:02.522Z,2.70
2022-12-06T11:34:36.344Z,2.90
2022-12-06T11:37:04.173Z,2.90
2022-12-06T11:39:31.714Z,3.00
2022-12-06T11:42:01.564Z,3.00
2022-12-06T11:44:38.467Z,2.90
2022-12-06T11:47:06.717Z,2.90
2022-12-06T11:49:42.054Z,2.70
2022-12-06T11:52:34.069Z,2.70
2022-12-06T11:55:05.580Z,2.60
2022-12-06T11:57:38.369Z,2.70
2022-12-06T12:00:11.189Z,2.70
2022-12-06T12:02:38.108Z,2.70
2022-12-06T12:05:35.124Z,2.80
2022-12-06T12:08:06.659Z,2.80
2022-12-06T12:10:36.177Z,2.80
2022-12-06T12:13:37.947Z,2.80
2022-12-06T12:16:36.310Z,2.60
2022-12-06T12:19:25.112Z,2.70
2022-12-06T12:21:54.632Z,2.80
2022-12-06T12:25:17.839Z,2.60
2022-12-06T12:27:44.961Z,2.60
2022-12-06T12:30:51.533Z,2.60
2022-12-06T12:33:19.974Z,2.80
2022-12-06T12:35:50.097Z,2.80
2022-12-06T12:38:31.641Z,2.80
2022-12-06T12:41:27.584Z,2.70
2022-12-06T12:46:56.168Z,2.70
2022-12-06T12:49:38.957Z,2.70
2022-12-06T12:52:30.710Z,2.60
2022-12-06T12:55:12.714Z,2.50
2022-12-06T12:57:40.804Z,2.50
2022-12-06T13:00:15.520Z,2.50
2022-12-06T13:02:43.950Z,2.50
2022-12-06T13:05:33.269Z,2.60
2022-12-06T13:08:09.575Z,2.60
2022-12-06T13:10:39.422Z,2.60
2022-12-06T13:13:14.632Z,2.70
2022-12-06T13:15:47.257Z,2.70
2022-12-06T13:18:21.177Z,2.70
2022-12-06T13:20:49.524Z,2.70
2022-12-06T13:23:19.716Z,2.80
2022-12-06T13:26:15.517Z,2.80
2022-12-06T13:28:46.948Z,2.90
2022-12-06T13:31:19.051Z,2.90
2022-12-06T13:33:51.328Z,3.00
2022-12-06T13:36:19.289Z,3.10
2022-12-06T13:38:46.172Z,3.20
2022-12-06T13:41:14.909Z,3.10
2022-12-06T13:43:48.891Z,3.10
2022-12-06T13:46:26.324Z,3.00
2022-12-06T13:48:55.836Z,2.90
2022-12-06T13:51:32.417Z,2.90
2022-12-06T13:54:19.285Z,2.70
2022-12-06T13:56:46.160Z,2.90
2022-12-06T13:59:12.906Z,2.80
2022-12-06T14:01:49.346Z,2.80
2022-12-06T14:06:57.937Z,2.90
2022-12-06T14:09:28.760Z,2.90
2022-12-06T14:12:00.406Z,3.00
2022-12-06T14:14:27.129Z,2.90
2022-12-06T14:17:10.564Z,3.00
2022-12-06T14:19:49.507Z,3.00
2022-12-06T14:22:23.488Z,3.00
2022-12-06T14:25:16.976Z,3.10
2022-12-06T14:27:48.306Z,3.10
2022-12-06T14:30:26.232Z,3.00
2022-12-06T14:32:55.878Z,3.00
2022-12-06T14:35:35.963Z,2.90
2022-12-06T14:38:16.470Z,3.00
2022-12-06T14:41:02.826Z,3.00
2022-12-06T14:43:32.957Z,3.10
2022-12-06T14:46:02.583Z,3.10
2022-12-06T14:48:51.813Z,3.10
2022-12-06T14:51:23.483Z,3.10
2022-12-06T14:53:50.781Z,3.10
2022-12-06T14:56:34.274Z,3.10
2022-12-06T14:59:09.170Z,2.90
2022-12-06T15:01:49.513Z,2.90
2022-12-06T15:04:35.328Z,3.00
2022-12-06T15:07:02.434Z,3.00
2022-12-06T15:09:30.796Z,2.90
2022-12-06T15:12:39.176Z,3.00
2022-12-06T15:15:06.011Z,3.00
2022-12-06T15:17:32.783Z,3.00
2022-12-06T15:19:59.899Z,2.90
2022-12-06T15:22:28.986Z,3.00
2022-12-06T15:25:00.091Z,3.00
2022-12-06T15:27:27.888Z,2.90
2022-12-06T15:29:54.598Z,2.90
2022-12-06T15:32:24.579Z,2.90
2022-12-06T15:34:51.307Z,2.80
2022-12-06T15:40:05.104Z,3.00
2022-12-06T15:42:31.878Z,2.90
2022-12-06T15:44:58.596Z,2.90
2022-12-06T15:47:25.338Z,2.80
2022-12-06T15:49:53.875Z,2.80
2022-12-06T15:52:24.735Z,2.70
2022-12-06T15:54:51.766Z,2.80
2022-12-06T15:57:18.487Z,2.80
2022-12-06T15:59:45.459Z,2.80
2022-12-06T16:02:17.415Z,2.80
2022-12-06T16:04:45.457Z,2.80
2022-12-06T16:07:13.442Z,2.80
2022-12-06T16:09:40.246Z,2.90
2022-12-06T16:12:07.215Z,3.00
2022-12-06T16:14:33.919Z,3.00
2022-12-06T16:17:00.546Z,3.00
2022-12-06T16:19:49.964Z,3.00
2022-12-06T16:22:16.627Z,3.10
2022-12-06T16:24:43.314Z,3.00
2022-12-06T16:27:10.288Z,3.00
2022-12-06T16:29:36.915Z,3.00
2022-12-06T16:32:03.594Z,3.00
2022-12-06T16:34:30.295Z,2.90
2022-12-06T16:37:09.265Z,3.00
2022-12-06T16:39:36.263Z,3.00
2022-12-06T16:42:05.838Z,2.90
2022-12-06T16:44:32.613Z,2.90
2022-12-06T16:46:59.558Z,2.90
2022-12-06T16:49:46.720Z,2.90
2022-12-06T16:52:14.805Z,2.90
2022-12-06T16:54:42.180Z,2.80
2022-12-06T16:57:11.283Z,2.80
2022-12-06T16:59:37.972Z,2.80
2022-12-06T17:02:16.069Z,2.80
2022-12-06T17:04:42.753Z,2.90
2022-12-06T17:07:09.380Z,2.80
2022-12-06T17:09:36.060Z,2.90
2022-12-06T17:12:02.849Z,2.70
2022-12-06T17:14:30.265Z,2.70
2022-12-06T17:17:00.027Z,2.70
2022-12-06T17:19:28.203Z,2.90
2022-12-06T17:21:55.372Z,2.90
2022-12-06T17:24:24.359Z,2.90
2022-12-06T17:26:51.307Z,2.90
2022-12-06T17:29:18.060Z,2.90
2022-12-06T17:31:44.764Z,2.80
2022-12-06T17:34:15.660Z,2.80
2022-12-06T17:36:43.275Z,2.80
2022-12-06T17:39:12.849Z,2.80
2022-12-06T17:41:57.987Z,2.80
2022-12-06T17:44:24.745Z,2.80
2022-12-06T17:46:51.420Z,2.90
2022-12-06T17:49:25.746Z,2.80
2022-12-06T17:51:52.668Z,2.80
2022-12-06T17:54:20.050Z,2.80
2022-12-06T17:56:48.956Z,2.80
2022-12-06T17:59:19.374Z,2.80
2022-12-06T18:02:17.417Z,2.90
2022-12-06T18:04:32.848Z,2.90
2022-12-06T18:06:59.518Z,2.90
2022-12-06T18:09:26.234Z,3.00
2022-12-06T18:11:52.925Z,3.00
2022-12-06T18:14:19.569Z,3.00
2022-12-06T18:16:46.661Z,2.90
2022-12-06T18:19:16.275Z,3.00
2022-12-06T18:21:43.234Z,3.00
2022-12-06T18:24:21.565Z,3.00
2022-12-06T18:26:49.734Z,3.00
2022-12-06T18:29:19.416Z,3.00
2022-12-06T18:31:46.684Z,3.00
2022-12-06T18:34:13.873Z,3.00
2022-12-06T18:36:41.173Z,2.90
2022-12-06T18:39:15.025Z,3.00
2022-12-06T18:41:46.029Z,2.90
2022-12-06T18:44:13.380Z,2.90
2022-12-06T18:46:42.321Z,2.80
2022-12-06T18:49:11.065Z,2.80
2022-12-06T18:51:38.752Z,2.80
2022-12-06T18:54:06.695Z,2.80
2022-12-06T18:56:34.658Z,2.90
2022-12-06T18:59:03.887Z,2.80
2022-12-06T19:01:33.845Z,2.90
2022-12-06T19:04:03.344Z,2.90
2022-12-06T19:06:35.659Z,2.90
2022-12-06T19:09:06.394Z,2.90
2022-12-06T19:11:37.070Z,2.80
2022-12-06T19:14:04.975Z,2.80
2022-12-06T19:16:39.468Z,2.80
2022-12-06T19:19:15.455Z,2.80
2022-12-06T19:21:43.836Z,3.00
2022-12-06T19:24:12.598Z,2.90
2022-12-06T19:26:39.722Z,2.80
2022-12-06T19:29:06.360Z,2.90
2022-12-06T19:31:33.340Z,2.90
2022-12-06T19:34:00.253Z,2.90
2022-12-06T19:36:29.472Z,2.90
2022-12-06T19:38:57.126Z,2.90
2022-12-06T19:41:24.133Z,3.00
2022-12-06T19:44:09.863Z,3.00
2022-12-06T19:46:37.229Z,2.80
2022-12-06T19:49:06.104Z,2.90
2022-12-06T19:51:35.754Z,2.90
2022-12-06T19:54:02.935Z,2.80
2022-12-06T19:56:29.605Z,2.80
2022-12-06T19:58:57.706Z,2.90
2022-12-06T20:01:26.239Z,2.90
2022-12-06T20:03:54.420Z,2.90
2022-12-06T20:06:23.622Z,2.80
2022-12-06T20:08:51.872Z,2.90
2022-12-06T20:11:39.692Z,2.70
2022-12-06T20:14:09.591Z,2.80
2022-12-06T20:16:37.074Z,2.80
2022-12-06T20:19:05.513Z,2.70
2022-12-06T20:21:32.430Z,2.70
2022-12-06T20:24:00.172Z,2.80
2022-12-06T20:26:31.704Z,2.80
2022-12-06T20:28:58.737Z,2.80
2022-12-06T20:31:28.083Z,2.90
2022-12-06T20:34:00.092Z,2.90
2022-12-06T20:36:28.250Z,2.90
2022-12-06T20:38:56.131Z,2.90
2022-12-06T20:41:25.717Z,2.90
2022-12-06T20:43:52.992Z,2.90
2022-12-06T20:46:26.467Z,3.00
2022-12-06T20:48:54.633Z,3.00
2022-12-06T20:51:24.054Z,3.00
2022-12-06T20:53:53.243Z,2.90
2022-12-06T20:56:22.187Z,2.80
2022-12-06T20:58:51.877Z,2.80
2022-12-06T21:01:22.452Z,2.90
2022-12-06T21:03:51.515Z,2.80
2022-12-06T21:06:20.429Z,2.80
2022-12-06T21:08:47.479Z,2.90
2022-12-06T21:11:22.692Z,2.90
2022-12-06T21:13:54.029Z,2.80
2022-12-06T21:16:23.728Z,2.90
2022-12-06T21:18:55.247Z,2.80
2022-12-06T21:21:27.691Z,2.80
2022-12-06T21:23:54.572Z,2.80
2022-12-06T21:26:21.374Z,2.70
2022-12-06T21:28:48.342Z,2.70
2022-12-06T21:31:15.254Z,2.70
2022-12-06T21:33:42.101Z,2.80
2022-12-06T21:36:10.190Z,2.80
2022-12-06T21:38:36.950Z,2.80
2022-12-06T21:41:06.056Z,2.80
2022-12-06T21:43:33.721Z,2.80
2022-12-06T21:46:09.057Z,2.90
2022-12-06T21:48:36.090Z,2.90
2022-12-06T21:51:08.848Z,2.90
2022-12-06T21:53:36.906Z,2.90
2022-12-06T21:56:14.130Z,2.90
2022-12-06T21:58:40.865Z,3.00
2022-12-06T22:01:10.095Z,2.80
2022-12-06T22:03:37.506Z,2.80
2022-12-06T22:06:09.370Z,2.80
2022-12-06T22:08:36.901Z,2.80
2022-12-06T22:11:08.341Z,2.90
2022-12-06T22:13:35.203Z,2.80
2022-12-06T22:16:06.810Z,2.90
2022-12-06T22:18:34.460Z,2.90
2022-12-06T22:21:04.821Z,2.70
2022-12-06T22:23:32.667Z,2.90
2022-12-06T22:26:00.123Z,2.80
2022-12-06T22:28:27.175Z,2.90
2022-12-06T22:30:53.926Z,2.90
2022-12-06T22:33:20.709Z,2.90
2022-12-06T22:35:47.328Z,2.80
2022-12-06T22:38:13.937Z,2.90
2022-12-06T22:52:35.766Z,2.50
2022-12-06T22:55:02.382Z,2.40
2022-12-06T22:57:29.042Z,2.40
2022-12-06T22:59:55.870Z,2.50
2022-12-06T23:02:22.573Z,2.50
2022-12-06T23:04:49.255Z,2.50
2022-12-06T23:07:15.912Z,2.50
2022-12-06T23:09:42.525Z,2.60
2022-12-06T23:12:09.176Z,2.60
2022-12-06T23:14:36.092Z,2.70
2022-12-06T23:17:02.731Z,2.60
2022-12-06T23:19:29.393Z,2.60
2022-12-06T23:21:56.023Z,2.60
2022-12-06T23:24:22.658Z,2.70
2022-12-06T23:26:54.522Z,2.60
2022-12-06T23:29:24.264Z,2.70
2022-12-06T23:31:50.999Z,2.70
2022-12-06T23:34:23.120Z,2.70
2022-12-06T23:36:50.008Z,2.80
2022-12-06T23:39:16.950Z,2.70
2022-12-06T23:41:43.843Z,2.70
2022-12-06T23:44:11.982Z,2.70
2022-12-06T23:46:39.758Z,2.70
2022-12-06T23:49:07.447Z,2.70
2022-12-06T23:51:36.749Z,2.70
2022-12-06T23:54:06.152Z,2.70
2022-12-06T23:56:37.188Z,2.70
2022-12-06T23:59:06.506Z,2.70
